createdAt,value
2019-02-19T00:00:17.662Z,26.30
2019-02-19T00:02:51.187Z,26.47
2019-02-19T00:05:34.155Z,29.33
2019-02-19T00:08:10.287Z,27.17
2019-02-19T00:11:02.569Z,28.20
2019-02-19T00:13:38.268Z,28.80
2019-02-19T00:16:07.372Z,26.73
2019-02-19T00:18:36.334Z,30.20
2019-02-19T00:21:12.832Z,30.47
2019-02-19T00:23:47.859Z,30.50
2019-02-19T00:26:22.286Z,30.17
2019-02-19T00:29:06.386Z,29.30
2019-02-19T00:31:42.646Z,27.03
2019-02-19T00:34:16.867Z,26.40
2019-02-19T00:36:52.129Z,27.73
2019-02-19T00:39:23.351Z,25.10
2019-02-19T00:41:52.527Z,27.03
2019-02-19T00:44:21.489Z,25.60
2019-02-19T00:46:57.418Z,27.03
2019-02-19T00:49:27.865Z,26.47
2019-02-19T00:51:58.991Z,24.83
2019-02-19T00:54:28.919Z,28.93
2019-02-19T00:56:59.014Z,26.27
2019-02-19T00:59:28.184Z,27.90
2019-02-19T01:01:59.320Z,27.63
2019-02-19T01:04:28.323Z,27.83
2019-02-19T01:07:00.319Z,28.83
2019-02-19T01:09:32.322Z,29.30
2019-02-19T01:12:05.952Z,26.03
2019-02-19T01:14:36.398Z,30.37
2019-02-19T01:17:08.052Z,28.03
2019-02-19T01:19:37.667Z,30.20
2019-02-19T01:22:10.198Z,27.30
2019-02-19T01:24:44.717Z,29.77
2019-02-19T01:27:25.891Z,28.50
2019-02-19T01:30:22.032Z,24.93
2019-02-19T01:32:59.465Z,28.20
2019-02-19T01:35:32.015Z,26.80
2019-02-19T01:38:15.474Z,27.37
2019-02-19T01:40:53.323Z,29.43
2019-02-19T01:43:18.263Z,28.73
2019-02-19T01:45:47.198Z,30.60
2019-02-19T01:48:16.595Z,27.70
2019-02-19T01:50:45.543Z,27.40
2019-02-19T01:53:15.629Z,32.20
2019-02-19T01:55:45.879Z,31.07
2019-02-19T01:58:15.919Z,31.47
2019-02-19T02:00:44.873Z,29.83
2019-02-19T02:03:15.580Z,32.30
2019-02-19T02:05:45.714Z,32.10
2019-02-19T02:08:17.929Z,30.23
2019-02-19T02:10:49.655Z,29.63
2019-02-19T02:13:20.607Z,30.57
2019-02-19T02:15:49.608Z,32.93
2019-02-19T02:18:18.623Z,29.43
2019-02-19T02:20:47.579Z,31.53
2019-02-19T02:23:18.816Z,31.43
2019-02-19T02:25:47.891Z,34.33
2019-02-19T02:28:17.907Z,30.43
2019-02-19T02:30:49.807Z,30.97
2019-02-19T02:33:23.188Z,31.13
2019-02-19T02:35:52.204Z,32.20
2019-02-19T02:38:23.319Z,34.37
2019-02-19T02:40:52.413Z,31.90
2019-02-19T02:43:26.769Z,33.90
2019-02-19T02:45:56.231Z,34.87
2019-02-19T02:48:25.155Z,35.20
2019-02-19T02:50:54.833Z,34.17
2019-02-19T02:53:23.907Z,34.67
2019-02-19T02:55:52.852Z,34.83
2019-02-19T02:58:22.040Z,38.80
2019-02-19T03:00:51.128Z,40.13
2019-02-19T03:03:20.081Z,41.23
2019-02-19T03:06:01.527Z,39.20
2019-02-19T03:08:31.792Z,35.97
2019-02-19T03:11:00.738Z,36.73
2019-02-19T03:13:30.052Z,36.73
2019-02-19T03:16:02.418Z,35.37
2019-02-19T03:18:29.666Z,36.03
2019-02-19T03:20:59.181Z,38.40
2019-02-19T03:23:30.141Z,38.53
2019-02-19T03:25:59.639Z,38.37
2019-02-19T03:28:36.424Z,36.13
2019-02-19T03:31:02.732Z,41.43
2019-02-19T03:33:31.913Z,40.30
2019-02-19T03:36:06.713Z,38.80
2019-02-19T03:38:43.412Z,40.27
2019-02-19T03:41:19.987Z,38.17
2019-02-19T03:43:53.523Z,41.27
2019-02-19T03:46:22.759Z,45.23
2019-02-19T03:48:51.717Z,42.90
2019-02-19T03:51:20.636Z,48.03
2019-02-19T03:53:50.124Z,45.03
2019-02-19T03:56:24.000Z,53.63
2019-02-19T03:59:06.824Z,44.90
2019-02-19T04:01:37.729Z,49.80
2019-02-19T04:04:13.268Z,47.40
2019-02-19T04:06:58.545Z,47.23
2019-02-19T04:12:27.557Z,52.77
2019-02-19T04:15:15.322Z,47.67
2019-02-19T04:17:43.872Z,53.37
2019-02-19T04:20:15.092Z,57.50
2019-02-19T04:22:44.034Z,46.83
2019-02-19T04:25:13.183Z,52.70
2019-02-19T04:27:42.249Z,50.27
2019-02-19T04:30:11.297Z,52.30
2019-02-19T04:32:40.495Z,47.27
2019-02-19T04:35:09.491Z,49.43
2019-02-19T04:37:50.141Z,54.03
2019-02-19T04:40:20.666Z,54.10
2019-02-19T04:42:49.645Z,57.27
2019-02-19T04:45:21.341Z,62.43
2019-02-19T04:47:50.739Z,55.87
2019-02-19T04:50:19.842Z,64.77
2019-02-19T04:52:51.419Z,61.43
2019-02-19T04:55:21.991Z,67.43
2019-02-19T04:57:50.943Z,73.67
2019-02-19T05:00:21.373Z,72.27
2019-02-19T05:02:51.628Z,80.43
2019-02-19T05:05:20.734Z,72.70
2019-02-19T05:07:52.043Z,76.13
2019-02-19T05:10:21.201Z,80.00
2019-02-19T05:12:50.151Z,81.17
2019-02-19T05:15:20.661Z,79.60
2019-02-19T05:17:50.235Z,89.70
2019-02-19T05:20:20.743Z,88.47
2019-02-19T05:22:49.739Z,92.60
2019-02-19T05:25:18.729Z,86.97
2019-02-19T05:27:49.854Z,89.77
2019-02-19T05:30:18.581Z,92.07
2019-02-19T05:32:48.059Z,88.67
2019-02-19T05:35:17.772Z,87.37
2019-02-19T05:37:49.380Z,84.03
2019-02-19T05:40:19.847Z,88.23
2019-02-19T05:42:48.893Z,88.40
2019-02-19T05:45:21.340Z,81.13
2019-02-19T05:47:54.855Z,80.87
2019-02-19T05:50:23.535Z,77.70
2019-02-19T05:52:55.705Z,82.60
2019-02-19T05:55:29.212Z,75.60
2019-02-19T05:58:19.095Z,69.83
2019-02-19T06:00:43.675Z,71.60
2019-02-19T06:03:19.254Z,71.33
2019-02-19T06:05:51.130Z,66.40
2019-02-19T06:08:26.867Z,70.80
2019-02-19T06:11:01.749Z,69.27
2019-02-19T06:13:30.500Z,65.87
2019-02-19T06:16:02.050Z,63.50
2019-02-19T06:18:31.087Z,67.87
2019-02-19T06:21:06.004Z,67.93
2019-02-19T06:23:37.716Z,67.83
2019-02-19T06:26:08.236Z,62.40
2019-02-19T06:28:39.913Z,58.70
2019-02-19T06:31:12.086Z,57.67
2019-02-19T06:33:59.671Z,60.23
2019-02-19T06:36:31.552Z,57.60
2019-02-19T06:42:13.200Z,58.60
2019-02-19T06:44:45.723Z,59.03
2019-02-19T06:47:28.715Z,58.30
2019-02-19T06:50:07.477Z,55.30
2019-02-19T06:52:41.450Z,59.50
2019-02-19T06:55:15.211Z,56.97
2019-02-19T06:57:53.199Z,58.93
2019-02-19T07:00:31.941Z,55.77
2019-02-19T07:03:21.219Z,58.57
2019-02-19T07:05:56.228Z,55.37
2019-02-19T07:08:36.336Z,49.63
2019-02-19T07:11:05.487Z,48.87
2019-02-19T07:13:34.470Z,52.03
2019-02-19T07:16:03.996Z,43.87
2019-02-19T07:18:33.245Z,48.93
2019-02-19T07:21:03.675Z,46.33
2019-02-19T07:23:32.684Z,48.13
2019-02-19T07:26:03.439Z,47.00
2019-02-19T07:28:33.856Z,42.33
2019-02-19T07:31:02.808Z,41.40
2019-02-19T07:33:31.883Z,39.57
2019-02-19T07:36:01.601Z,36.03
2019-02-19T07:38:36.578Z,36.80
2019-02-19T07:41:07.120Z,35.53
2019-02-19T07:43:55.176Z,36.80
2019-02-19T07:46:25.820Z,33.53
2019-02-19T07:48:55.080Z,34.70
2019-02-19T07:51:25.620Z,35.40
2019-02-19T07:53:56.932Z,35.90
2019-02-19T07:56:33.359Z,34.13
2019-02-19T07:59:03.950Z,36.63
2019-02-19T08:01:34.913Z,34.93
2019-02-19T08:04:07.129Z,36.03
2019-02-19T08:06:37.683Z,37.53
2019-02-19T08:09:12.269Z,33.60
2019-02-19T08:11:45.576Z,34.83
2019-02-19T08:14:14.543Z,34.03
2019-02-19T08:16:49.509Z,36.43
2019-02-19T08:19:21.202Z,40.20
2019-02-19T08:22:01.475Z,37.17
2019-02-19T08:24:30.576Z,32.93
2019-02-19T08:26:59.519Z,33.50
2019-02-19T08:29:29.503Z,30.80
2019-02-19T08:31:58.854Z,36.20
2019-02-19T08:34:29.766Z,32.13
2019-02-19T08:37:11.884Z,33.73
2019-02-19T08:39:35.311Z,30.53
2019-02-19T08:42:13.060Z,37.77
2019-02-19T08:47:31.371Z,35.93
2019-02-19T08:50:02.797Z,34.37
2019-02-19T08:52:31.751Z,36.23
2019-02-19T08:55:00.715Z,33.50
2019-02-19T08:57:32.137Z,32.53
2019-02-19T09:00:03.158Z,30.20
2019-02-19T09:02:34.072Z,35.50
2019-02-19T09:05:04.863Z,33.93
2019-02-19T09:07:39.485Z,32.87
2019-02-19T09:10:15.720Z,27.47
2019-02-19T09:12:51.112Z,29.83
2019-02-19T09:15:22.184Z,27.07
2019-02-19T09:17:53.153Z,29.80
2019-02-19T09:20:22.175Z,30.27
2019-02-19T09:22:54.145Z,28.13
2019-02-19T09:25:23.199Z,28.20
2019-02-19T09:27:56.676Z,29.90
2019-02-19T09:30:29.844Z,29.40
2019-02-19T09:32:58.861Z,30.57
2019-02-19T09:35:29.491Z,24.53
2019-02-19T09:38:00.945Z,24.30
2019-02-19T09:40:29.967Z,24.87
2019-02-19T09:43:04.656Z,23.43
2019-02-19T09:45:36.895Z,26.03
2019-02-19T09:48:08.337Z,25.53
2019-02-19T09:50:41.392Z,21.97
2019-02-19T09:53:10.700Z,28.07
2019-02-19T09:55:39.682Z,24.90
2019-02-19T09:58:08.754Z,22.80
2019-02-19T10:00:41.668Z,25.70
2019-02-19T10:03:16.239Z,25.33
2019-02-19T10:05:48.176Z,22.07
2019-02-19T10:08:25.643Z,28.63
2019-02-19T10:10:54.399Z,24.57
2019-02-19T10:13:28.874Z,22.13
2019-02-19T10:16:03.485Z,26.53
2019-02-19T10:18:37.167Z,24.53
2019-02-19T10:21:06.340Z,22.67
2019-02-19T10:23:35.280Z,23.63
2019-02-19T10:26:06.525Z,21.90
2019-02-19T10:28:35.524Z,24.00
2019-02-19T10:31:05.976Z,25.13
2019-02-19T10:33:35.193Z,21.50
2019-02-19T10:36:04.571Z,26.23
2019-02-19T10:38:36.472Z,28.57
2019-02-19T10:41:07.562Z,24.47
2019-02-19T10:43:38.003Z,24.80
2019-02-19T10:46:07.121Z,25.23
2019-02-19T10:48:37.546Z,25.73
2019-02-19T10:51:10.528Z,24.23
2019-02-19T10:56:20.536Z,21.40
2019-02-19T10:58:49.500Z,20.30
2019-02-19T11:04:09.616Z,19.33
2019-02-19T11:06:40.918Z,17.30
2019-02-19T11:09:10.026Z,18.93
2019-02-19T11:11:39.064Z,22.57
2019-02-19T11:14:18.684Z,21.30
2019-02-19T11:16:47.719Z,20.73
2019-02-19T11:19:16.679Z,20.40
2019-02-19T11:22:15.119Z,20.13
2019-02-19T11:24:46.515Z,21.87
2019-02-19T11:27:32.399Z,21.53
2019-02-19T11:30:02.784Z,20.23
2019-02-19T11:32:36.343Z,18.77
2019-02-19T11:35:13.592Z,22.23
2019-02-19T11:37:41.944Z,24.83
2019-02-19T11:40:14.302Z,22.07
2019-02-19T11:42:43.358Z,20.70
2019-02-19T11:45:15.113Z,19.67
2019-02-19T11:47:44.321Z,19.50
2019-02-19T11:50:14.489Z,19.77
2019-02-19T11:52:43.706Z,19.57
2019-02-19T11:55:17.732Z,23.87
2019-02-19T11:57:51.127Z,20.13
2019-02-19T12:00:34.038Z,22.53
2019-02-19T12:03:05.421Z,21.07
2019-02-19T12:05:34.623Z,22.53
2019-02-19T12:08:05.006Z,20.93
2019-02-19T12:10:34.229Z,19.07
2019-02-19T12:13:04.993Z,21.70
2019-02-19T12:15:35.675Z,18.97
2019-02-19T12:18:08.369Z,21.30
2019-02-19T12:20:39.072Z,24.77
2019-02-19T12:23:08.020Z,23.40
2019-02-19T12:25:37.225Z,25.87
2019-02-19T12:30:55.583Z,20.47
2019-02-19T12:33:24.645Z,24.40
2019-02-19T12:35:55.980Z,20.07
2019-02-19T12:38:33.708Z,24.03
2019-02-19T12:41:03.863Z,22.23
2019-02-19T12:43:33.079Z,21.60
2019-02-19T12:46:02.036Z,21.27
2019-02-19T12:48:31.227Z,21.27
2019-02-19T12:51:02.324Z,23.60
2019-02-19T12:53:31.368Z,22.67
2019-02-19T12:56:00.348Z,25.53
2019-02-19T12:58:29.492Z,24.23
2019-02-19T13:00:58.800Z,28.10
2019-02-19T13:03:27.871Z,26.60
2019-02-19T13:05:57.037Z,28.00
2019-02-19T13:08:26.041Z,30.10
2019-02-19T13:10:56.174Z,30.53
2019-02-19T13:13:25.695Z,29.73
2019-02-19T13:15:54.688Z,31.53
2019-02-19T13:18:23.640Z,30.03
2019-02-19T13:20:54.349Z,26.87
2019-02-19T13:23:23.288Z,31.73
2019-02-19T13:25:52.266Z,35.27
2019-02-19T13:28:21.300Z,34.27
2019-02-19T13:30:50.244Z,31.73
2019-02-19T13:33:19.198Z,32.97
2019-02-19T13:35:55.538Z,30.87
2019-02-19T13:38:24.602Z,33.77
2019-02-19T13:40:54.628Z,33.17
2019-02-19T13:43:26.407Z,34.00
2019-02-19T13:46:13.231Z,31.30
2019-02-19T13:48:51.901Z,31.87
2019-02-19T13:51:31.450Z,33.20
2019-02-19T13:54:15.723Z,32.20
2019-02-19T13:56:57.166Z,30.53
2019-02-19T13:59:37.165Z,27.53
2019-02-19T14:02:21.992Z,27.77
2019-02-19T14:04:51.174Z,27.20
2019-02-19T14:07:20.138Z,30.07
2019-02-19T14:09:49.086Z,26.87
2019-02-19T14:12:20.976Z,25.90
2019-02-19T14:15:07.588Z,26.13
2019-02-19T14:17:54.446Z,27.17
2019-02-19T14:24:31.718Z,28.90
2019-02-19T14:26:42.126Z,25.43
2019-02-19T14:29:35.803Z,29.53
2019-02-19T14:32:11.864Z,31.67
2019-02-19T14:34:52.476Z,26.77
2019-02-19T14:37:23.155Z,29.77
2019-02-19T14:39:53.773Z,33.17
2019-02-19T14:42:41.576Z,23.83
2019-02-19T14:45:30.872Z,24.90
2019-02-19T14:48:16.154Z,19.70
2019-02-19T14:50:47.306Z,25.17
2019-02-19T14:53:34.312Z,24.07
2019-02-19T14:56:14.675Z,27.73
2019-02-19T14:58:45.351Z,25.17
2019-02-19T15:01:34.012Z,23.67
2019-02-19T15:04:17.247Z,28.03
2019-02-19T15:06:53.033Z,22.10
2019-02-19T15:09:23.638Z,15.43
2019-02-19T15:11:57.288Z,17.30
2019-02-19T15:14:31.791Z,18.87
2019-02-19T15:17:05.954Z,26.67
2019-02-19T15:19:39.059Z,20.60
2019-02-19T15:22:23.107Z,19.10
2019-02-19T15:25:08.375Z,17.83
2019-02-19T15:27:52.422Z,20.53
2019-02-19T15:30:30.346Z,20.50
2019-02-19T15:32:58.677Z,12.83
2019-02-19T15:36:06.893Z,12.90
2019-02-19T15:38:40.592Z,12.07
2019-02-19T15:42:35.988Z,17.50
2019-02-19T15:44:16.279Z,19.40
2019-02-19T15:47:07.787Z,12.03
2019-02-19T15:49:59.252Z,15.83
2019-02-19T15:52:51.777Z,20.87
2019-02-19T15:55:32.641Z,19.80
2019-02-19T15:58:27.054Z,20.13
2019-02-19T16:01:14.505Z,26.43
2019-02-19T16:03:47.862Z,25.93
2019-02-19T16:06:23.102Z,32.07
2019-02-19T16:09:10.302Z,28.80
2019-02-19T16:11:49.658Z,29.13
2019-02-19T16:14:34.060Z,30.60
2019-02-19T16:17:06.907Z,29.60
2019-02-19T16:20:01.696Z,24.07
2019-02-19T16:22:40.617Z,31.80
2019-02-19T16:25:22.838Z,24.83
2019-02-19T16:27:54.771Z,26.63
2019-02-19T16:30:27.194Z,29.10
2019-02-19T16:33:33.517Z,29.03
2019-02-19T16:36:24.477Z,25.20
2019-02-19T16:39:35.072Z,36.47
2019-02-19T16:42:05.006Z,31.17
2019-02-19T16:45:17.585Z,32.07
2019-02-19T16:51:46.697Z,24.43
2019-02-19T17:00:15.268Z,23.03
2019-02-19T17:02:48.567Z,25.20
2019-02-19T17:05:37.949Z,24.67
2019-02-19T17:10:59.364Z,29.43
2019-02-19T17:13:38.749Z,22.57
2019-02-19T17:16:27.255Z,28.57
2019-02-19T17:19:10.887Z,24.13
2019-02-19T17:21:41.914Z,20.87
2019-02-19T17:24:19.082Z,26.60
2019-02-19T17:26:54.540Z,26.07
2019-02-19T17:29:33.670Z,25.10
2019-02-19T17:32:06.995Z,20.33
2019-02-19T17:34:47.617Z,28.97
2019-02-19T17:37:24.138Z,27.90
2019-02-19T17:39:55.362Z,27.00
2019-02-19T17:42:31.135Z,23.30
2019-02-19T17:45:04.351Z,27.50
2019-02-19T17:47:44.560Z,33.93
2019-02-19T17:50:38.475Z,27.70
2019-02-19T17:56:21.517Z,29.60
2019-02-19T17:59:02.598Z,23.73
2019-02-19T18:01:35.814Z,25.83
2019-02-19T18:04:24.727Z,28.93
2019-02-19T18:06:55.438Z,24.47
2019-02-19T18:09:46.425Z,23.70
2019-02-19T18:12:58.314Z,33.43
2019-02-19T18:15:14.243Z,28.80
2019-02-19T18:18:01.033Z,23.30
2019-02-19T18:20:47.127Z,27.43
2019-02-19T18:23:12.530Z,23.17
2019-02-19T18:25:46.998Z,27.17
2019-02-19T18:28:23.733Z,25.33
2019-02-19T18:33:47.323Z,26.67
2019-02-19T18:36:19.983Z,29.17
2019-02-19T18:44:33.351Z,28.00
2019-02-19T18:54:30.976Z,29.27
2019-02-19T18:55:37.600Z,32.90
2019-02-19T18:58:11.938Z,23.53
2019-02-19T19:00:45.989Z,30.63
2019-02-19T19:03:19.387Z,30.53
2019-02-19T19:05:53.081Z,28.80
2019-02-19T19:08:31.067Z,19.00
2019-02-19T19:10:59.657Z,23.03
2019-02-19T19:19:12.735Z,27.63
2019-02-19T19:21:45.554Z,27.13
2019-02-19T19:30:04.550Z,25.07
2019-02-19T19:35:25.481Z,25.23
2019-02-19T19:40:49.401Z,27.40
2019-02-19T19:43:24.564Z,23.53
2019-02-19T19:46:04.810Z,31.00
2019-02-19T19:48:46.122Z,25.00
2019-02-19T19:54:44.335Z,29.27
2019-02-19T20:00:27.065Z,25.73
2019-02-19T20:02:57.367Z,29.73
2019-02-19T20:05:32.432Z,25.00
2019-02-19T20:08:19.054Z,23.50
2019-02-19T20:17:45.784Z,27.47
2019-02-19T20:19:51.219Z,23.03
2019-02-19T20:22:30.357Z,22.73
2019-02-19T20:28:41.768Z,27.80
2019-02-19T20:31:34.390Z,39.10
2019-02-19T20:37:16.831Z,32.57
2019-02-19T20:39:47.210Z,26.77
2019-02-19T20:42:30.998Z,23.60
2019-02-19T20:45:16.116Z,29.70
2019-02-19T20:59:40.647Z,30.50
2019-02-19T21:05:06.458Z,26.83
2019-02-19T21:07:42.179Z,27.67
2019-02-19T21:13:11.928Z,29.20
2019-02-19T21:18:18.754Z,34.40
2019-02-19T21:29:36.558Z,25.43
2019-02-19T21:32:10.030Z,31.37
2019-02-19T21:34:52.738Z,29.57
2019-02-19T21:43:56.269Z,33.83
2019-02-19T21:52:16.890Z,35.13
2019-02-19T21:57:32.646Z,33.53
2019-02-19T22:00:21.467Z,34.03
2019-02-19T22:02:31.116Z,31.23
2019-02-19T22:05:06.226Z,28.47
2019-02-19T22:07:40.668Z,32.73
2019-02-19T22:14:01.672Z,28.60
2019-02-19T22:15:31.184Z,33.73
2019-02-19T22:18:04.308Z,26.20
2019-02-19T22:20:51.451Z,37.73
2019-02-19T22:23:25.638Z,36.17
2019-02-19T22:25:55.831Z,31.47
2019-02-19T22:28:24.802Z,29.83
2019-02-19T22:30:54.056Z,31.33
2019-02-19T22:33:23.340Z,33.37
2019-02-19T22:36:02.182Z,31.20
2019-02-19T22:38:50.761Z,39.13
2019-02-19T22:41:40.940Z,34.93
2019-02-19T22:47:05.598Z,29.47
2019-02-19T22:52:26.883Z,39.70
2019-02-19T22:55:02.003Z,39.60
2019-02-19T22:57:30.992Z,31.93
2019-02-19T23:00:01.162Z,31.43
2019-02-19T23:02:31.919Z,37.63
2019-02-19T23:05:05.233Z,39.17
2019-02-19T23:07:35.983Z,34.60
2019-02-19T23:10:06.698Z,43.13
2019-02-19T23:12:43.425Z,39.40
2019-02-19T23:15:14.192Z,33.90
2019-02-19T23:17:46.262Z,35.63
2019-02-19T23:20:17.306Z,41.37
2019-02-19T23:22:46.591Z,35.37
2019-02-19T23:25:17.932Z,33.97
2019-02-19T23:27:48.512Z,30.77
2019-02-19T23:30:17.622Z,37.10
2019-02-19T23:32:48.289Z,35.33
2019-02-19T23:35:24.967Z,34.40
2019-02-19T23:37:53.912Z,42.23
2019-02-19T23:40:24.342Z,32.63
2019-02-19T23:42:59.247Z,33.00
2019-02-19T23:45:27.288Z,39.87
2019-02-19T23:48:00.349Z,39.47
2019-02-19T23:52:07.620Z,36.07
2019-02-19T23:53:05.713Z,38.30
2019-02-19T23:55:38.987Z,37.90
2019-02-19T23:58:08.063Z,35.90
